sensor_id;sensor_type;location;lat;lon;timestamp;P1;durP1;ratioP1;P2;durP2;ratioP2
1613;SDS011;800;48.824;9.346;2023-05-07T00:02:20;3.93;;;3.63;;
1613;SDS011;800;48.824;9.346;2023-05-07T00:04:46;3.50;;;3.30;;
1613;SDS011;800;48.824;9.346;2023-05-07T00:07:11;4.30;;;3.90;;
1613;SDS011;800;48.824;9.346;2023-05-07T00:09:37;5.80;;;3.77;;
1613;SDS011;800;48.824;9.346;2023-05-07T00:12:03;3.73;;;3.43;;
1613;SDS011;800;48.824;9.346;2023-05-07T00:14:28;4.03;;;3.60;;
1613;SDS011;800;48.824;9.346;2023-05-07T00:16:54;4.20;;;3.87;;
1613;SDS011;800;48.824;9.346;2023-05-07T00:19:20;3.97;;;3.67;;
1613;SDS011;800;48.824;9.346;2023-05-07T00:21:45;3.60;;;3.30;;
1613;SDS011;800;48.824;9.346;2023-05-07T00:24:11;6.67;;;3.57;;
1613;SDS011;800;48.824;9.346;2023-05-07T00:26:37;3.70;;;3.40;;
1613;SDS011;800;48.824;9.346;2023-05-07T00:29:02;3.53;;;3.20;;
1613;SDS011;800;48.824;9.346;2023-05-07T00:31:28;5.13;;;3.20;;
1613;SDS011;800;48.824;9.346;2023-05-07T00:33:54;7.33;;;3.43;;
1613;SDS011;800;48.824;9.346;2023-05-07T00:36:19;3.80;;;3.40;;
1613;SDS011;800;48.824;9.346;2023-05-07T00:38:45;4.43;;;3.63;;
1613;SDS011;800;48.824;9.346;2023-05-07T00:41:10;3.97;;;3.67;;
1613;SDS011;800;48.824;9.346;2023-05-07T00:43:36;5.43;;;3.57;;
1613;SDS011;800;48.824;9.346;2023-05-07T00:46:01;4.00;;;3.40;;
1613;SDS011;800;48.824;9.346;2023-05-07T00:48:27;3.10;;;2.90;;
1613;SDS011;800;48.824;9.346;2023-05-07T00:50:53;4.87;;;2.77;;
1613;SDS011;800;48.824;9.346;2023-05-07T00:53:18;4.20;;;2.87;;
1613;SDS011;800;48.824;9.346;2023-05-07T00:55:45;3.60;;;3.30;;
1613;SDS011;800;48.824;9.346;2023-05-07T00:58:11;3.30;;;3.00;;
1613;SDS011;800;48.824;9.346;2023-05-07T01:00:36;3.87;;;3.47;;
1613;SDS011;800;48.824;9.346;2023-05-07T01:03:02;4.00;;;3.50;;
1613;SDS011;800;48.824;9.346;2023-05-07T01:05:28;3.50;;;3.20;;
1613;SDS011;800;48.824;9.346;2023-05-07T01:07:55;3.73;;;3.40;;
1613;SDS011;800;48.824;9.346;2023-05-07T01:10:21;5.60;;;3.90;;
1613;SDS011;800;48.824;9.346;2023-05-07T01:12:48;5.20;;;3.10;;
1613;SDS011;800;48.824;9.346;2023-05-07T01:15:15;4.00;;;3.13;;
1613;SDS011;800;48.824;9.346;2023-05-07T01:17:42;8.50;;;3.50;;
1613;SDS011;800;48.824;9.346;2023-05-07T01:20:08;3.40;;;3.10;;
1613;SDS011;800;48.824;9.346;2023-05-07T01:22:35;4.70;;;3.67;;
1613;SDS011;800;48.824;9.346;2023-05-07T01:25:02;3.67;;;3.20;;
1613;SDS011;800;48.824;9.346;2023-05-07T01:27:29;4.70;;;4.17;;
1613;SDS011;800;48.824;9.346;2023-05-07T01:29:55;3.73;;;3.43;;
1613;SDS011;800;48.824;9.346;2023-05-07T01:32:26;4.60;;;3.57;;
1613;SDS011;800;48.824;9.346;2023-05-07T01:35:05;4.20;;;3.47;;
1613;SDS011;800;48.824;9.346;2023-05-07T01:37:33;3.33;;;3.03;;
1613;SDS011;800;48.824;9.346;2023-05-07T01:39:58;4.77;;;3.27;;
1613;SDS011;800;48.824;9.346;2023-05-07T01:42:25;4.07;;;3.23;;
1613;SDS011;800;48.824;9.346;2023-05-07T01:44:51;4.23;;;3.50;;
1613;SDS011;800;48.824;9.346;2023-05-07T01:47:16;4.03;;;3.53;;
1613;SDS011;800;48.824;9.346;2023-05-07T01:49:42;3.40;;;2.93;;
1613;SDS011;800;48.824;9.346;2023-05-07T01:52:10;3.37;;;3.07;;
1613;SDS011;800;48.824;9.346;2023-05-07T01:54:36;4.63;;;3.20;;
1613;SDS011;800;48.824;9.346;2023-05-07T01:57:02;3.43;;;3.10;;
1613;SDS011;800;48.824;9.346;2023-05-07T01:59:27;4.00;;;3.47;;
1613;SDS011;800;48.824;9.346;2023-05-07T02:01:53;3.43;;;3.20;;
1613;SDS011;800;48.824;9.346;2023-05-07T02:04:19;3.17;;;2.97;;
1613;SDS011;800;48.824;9.346;2023-05-07T02:06:44;11.00;;;3.43;;
1613;SDS011;800;48.824;9.346;2023-05-07T02:09:10;4.17;;;3.67;;
1613;SDS011;800;48.824;9.346;2023-05-07T02:11:36;3.00;;;2.80;;
1613;SDS011;800;48.824;9.346;2023-05-07T02:14:01;3.10;;;2.80;;
1613;SDS011;800;48.824;9.346;2023-05-07T02:16:27;4.37;;;3.40;;
1613;SDS011;800;48.824;9.346;2023-05-07T02:18:52;3.60;;;3.10;;
1613;SDS011;800;48.824;9.346;2023-05-07T02:21:18;3.33;;;2.93;;
1613;SDS011;800;48.824;9.346;2023-05-07T02:23:43;3.40;;;3.10;;
1613;SDS011;800;48.824;9.346;2023-05-07T02:26:10;3.57;;;3.20;;
1613;SDS011;800;48.824;9.346;2023-05-07T02:28:36;4.10;;;3.70;;
1613;SDS011;800;48.824;9.346;2023-05-07T02:31:04;5.40;;;3.60;;
1613;SDS011;800;48.824;9.346;2023-05-07T02:33:30;3.70;;;3.30;;
1613;SDS011;800;48.824;9.346;2023-05-07T02:35:55;5.03;;;3.00;;
1613;SDS011;800;48.824;9.346;2023-05-07T02:38:21;3.27;;;3.00;;
1613;SDS011;800;48.824;9.346;2023-05-07T02:40:47;5.03;;;3.37;;
1613;SDS011;800;48.824;9.346;2023-05-07T02:43:13;5.57;;;3.23;;
1613;SDS011;800;48.824;9.346;2023-05-07T02:45:38;4.70;;;3.33;;
1613;SDS011;800;48.824;9.346;2023-05-07T02:48:04;4.90;;;3.80;;
1613;SDS011;800;48.824;9.346;2023-05-07T02:50:31;3.10;;;2.90;;
1613;SDS011;800;48.824;9.346;2023-05-07T02:52:57;3.37;;;3.17;;
1613;SDS011;800;48.824;9.346;2023-05-07T02:55:23;3.73;;;3.43;;
1613;SDS011;800;48.824;9.346;2023-05-07T02:57:49;4.27;;;3.20;;
1613;SDS011;800;48.824;9.346;2023-05-07T03:00:15;3.90;;;3.60;;
1613;SDS011;800;48.824;9.346;2023-05-07T03:02:43;4.37;;;3.03;;
1613;SDS011;800;48.824;9.346;2023-05-07T03:05:10;7.03;;;3.90;;
1613;SDS011;800;48.824;9.346;2023-05-07T03:07:35;3.83;;;3.53;;
1613;SDS011;800;48.824;9.346;2023-05-07T03:10:01;3.30;;;3.00;;
1613;SDS011;800;48.824;9.346;2023-05-07T03:12:27;3.37;;;3.17;;
1613;SDS011;800;48.824;9.346;2023-05-07T03:14:53;3.77;;;3.40;;
1613;SDS011;800;48.824;9.346;2023-05-07T03:17:18;4.00;;;3.47;;
1613;SDS011;800;48.824;9.346;2023-05-07T03:19:45;3.67;;;3.40;;
1613;SDS011;800;48.824;9.346;2023-05-07T03:22:10;3.53;;;3.33;;
1613;SDS011;800;48.824;9.346;2023-05-07T03:24:36;3.00;;;2.80;;
1613;SDS011;800;48.824;9.346;2023-05-07T03:27:01;4.73;;;3.90;;
1613;SDS011;800;48.824;9.346;2023-05-07T03:29:27;3.40;;;3.10;;
1613;SDS011;800;48.824;9.346;2023-05-07T03:31:53;5.10;;;3.60;;
1613;SDS011;800;48.824;9.346;2023-05-07T03:34:19;5.20;;;3.83;;
1613;SDS011;800;48.824;9.346;2023-05-07T03:36:47;3.33;;;3.13;;
1613;SDS011;800;48.824;9.346;2023-05-07T03:39:13;7.93;;;3.60;;
1613;SDS011;800;48.824;9.346;2023-05-07T03:41:39;3.83;;;3.10;;
1613;SDS011;800;48.824;9.346;2023-05-07T03:44:05;3.90;;;3.50;;
1613;SDS011;800;48.824;9.346;2023-05-07T03:46:30;5.80;;;3.93;;
1613;SDS011;800;48.824;9.346;2023-05-07T03:48:57;5.83;;;3.23;;
1613;SDS011;800;48.824;9.346;2023-05-07T03:51:23;3.60;;;3.30;;
1613;SDS011;800;48.824;9.346;2023-05-07T03:53:49;3.73;;;3.43;;
1613;SDS011;800;48.824;9.346;2023-05-07T03:56:17;7.03;;;3.23;;
1613;SDS011;800;48.824;9.346;2023-05-07T03:58:43;3.30;;;3.00;;
1613;SDS011;800;48.824;9.346;2023-05-07T04:01:09;8.77;;;3.93;;
1613;SDS011;800;48.824;9.346;2023-05-07T04:03:34;3.70;;;2.90;;
1613;SDS011;800;48.824;9.346;2023-05-07T04:06:00;3.27;;;3.07;;
1613;SDS011;800;48.824;9.346;2023-05-07T04:08:26;3.40;;;3.00;;
1613;SDS011;800;48.824;9.346;2023-05-07T04:10:55;3.33;;;3.13;;
1613;SDS011;800;48.824;9.346;2023-05-07T04:13:21;3.20;;;2.90;;
1613;SDS011;800;48.824;9.346;2023-05-07T04:15:46;3.53;;;3.23;;
1613;SDS011;800;48.824;9.346;2023-05-07T04:18:14;3.57;;;3.27;;
1613;SDS011;800;48.824;9.346;2023-05-07T04:20:40;3.40;;;3.13;;
1613;SDS011;800;48.824;9.346;2023-05-07T04:23:05;8.03;;;3.03;;
1613;SDS011;800;48.824;9.346;2023-05-07T04:25:31;3.50;;;3.20;;
1613;SDS011;800;48.824;9.346;2023-05-07T04:27:58;4.23;;;2.80;;
1613;SDS011;800;48.824;9.346;2023-05-07T04:30:23;3.40;;;3.20;;
1613;SDS011;800;48.824;9.346;2023-05-07T04:32:49;5.43;;;3.67;;
1613;SDS011;800;48.824;9.346;2023-05-07T04:35:15;3.80;;;3.33;;
1613;SDS011;800;48.824;9.346;2023-05-07T04:37:41;4.90;;;3.67;;
1613;SDS011;800;48.824;9.346;2023-05-07T04:40:06;3.30;;;3.00;;
1613;SDS011;800;48.824;9.346;2023-05-07T04:42:32;3.50;;;2.90;;
1613;SDS011;800;48.824;9.346;2023-05-07T04:44:58;4.37;;;3.20;;
1613;SDS011;800;48.824;9.346;2023-05-07T04:47:23;9.53;;;2.80;;
1613;SDS011;800;48.824;9.346;2023-05-07T04:49:49;7.97;;;3.50;;
1613;SDS011;800;48.824;9.346;2023-05-07T04:52:15;3.90;;;3.00;;
1613;SDS011;800;48.824;9.346;2023-05-07T04:54:41;6.03;;;3.03;;
1613;SDS011;800;48.824;9.346;2023-05-07T04:57:07;2.80;;;2.57;;
1613;SDS011;800;48.824;9.346;2023-05-07T04:59:33;3.00;;;2.70;;
1613;SDS011;800;48.824;9.346;2023-05-07T05:01:59;4.67;;;3.07;;
1613;SDS011;800;48.824;9.346;2023-05-07T05:04:24;4.40;;;3.50;;
1613;SDS011;800;48.824;9.346;2023-05-07T05:06:50;6.50;;;2.80;;
1613;SDS011;800;48.824;9.346;2023-05-07T05:09:16;6.07;;;2.93;;
1613;SDS011;800;48.824;9.346;2023-05-07T05:11:42;4.40;;;3.20;;
1613;SDS011;800;48.824;9.346;2023-05-07T05:14:08;3.27;;;3.07;;
1613;SDS011;800;48.824;9.346;2023-05-07T05:16:34;3.03;;;2.83;;
1613;SDS011;800;48.824;9.346;2023-05-07T05:19:01;3.60;;;2.90;;
1613;SDS011;800;48.824;9.346;2023-05-07T05:21:27;4.20;;;3.20;;
1613;SDS011;800;48.824;9.346;2023-05-07T05:23:52;7.53;;;4.83;;
1613;SDS011;800;48.824;9.346;2023-05-07T05:26:19;5.07;;;3.57;;
1613;SDS011;800;48.824;9.346;2023-05-07T05:28:46;4.57;;;4.20;;
1613;SDS011;800;48.824;9.346;2023-05-07T05:31:11;4.13;;;3.20;;
1613;SDS011;800;48.824;9.346;2023-05-07T05:33:37;9.80;;;3.57;;
1613;SDS011;800;48.824;9.346;2023-05-07T05:36:03;3.90;;;3.53;;
1613;SDS011;800;48.824;9.346;2023-05-07T05:38:29;4.20;;;3.30;;
1613;SDS011;800;48.824;9.346;2023-05-07T05:40:54;3.40;;;3.20;;
1613;SDS011;800;48.824;9.346;2023-05-07T05:43:20;3.57;;;3.30;;
1613;SDS011;800;48.824;9.346;2023-05-07T05:45:46;4.40;;;2.90;;
1613;SDS011;800;48.824;9.346;2023-05-07T05:48:11;2.77;;;2.57;;
1613;SDS011;800;48.824;9.346;2023-05-07T05:50:37;3.10;;;2.90;;
1613;SDS011;800;48.824;9.346;2023-05-07T05:53:02;4.00;;;3.20;;
1613;SDS011;800;48.824;9.346;2023-05-07T05:55:28;2.70;;;2.50;;
1613;SDS011;800;48.824;9.346;2023-05-07T05:57:54;3.30;;;3.00;;
1613;SDS011;800;48.824;9.346;2023-05-07T06:00:19;5.20;;;2.53;;
1613;SDS011;800;48.824;9.346;2023-05-07T06:02:47;3.20;;;2.90;;
1613;SDS011;800;48.824;9.346;2023-05-07T06:05:13;4.53;;;3.10;;
1613;SDS011;800;48.824;9.346;2023-05-07T06:07:39;2.67;;;2.47;;
1613;SDS011;800;48.824;9.346;2023-05-07T06:10:04;2.50;;;2.30;;
1613;SDS011;800;48.824;9.346;2023-05-07T06:12:31;4.33;;;3.00;;
1613;SDS011;800;48.824;9.346;2023-05-07T06:14:56;4.43;;;2.77;;
1613;SDS011;800;48.824;9.346;2023-05-07T06:17:22;3.27;;;2.53;;
1613;SDS011;800;48.824;9.346;2023-05-07T06:19:48;3.67;;;3.37;;
1613;SDS011;800;48.824;9.346;2023-05-07T06:22:13;3.30;;;2.63;;
1613;SDS011;800;48.824;9.346;2023-05-07T06:24:39;2.50;;;2.40;;
1613;SDS011;800;48.824;9.346;2023-05-07T06:27:04;2.80;;;2.60;;
1613;SDS011;800;48.824;9.346;2023-05-07T06:29:30;3.50;;;2.40;;
1613;SDS011;800;48.824;9.346;2023-05-07T06:32:05;2.57;;;2.27;;
1613;SDS011;800;48.824;9.346;2023-05-07T06:34:35;3.10;;;2.80;;
1613;SDS011;800;48.824;9.346;2023-05-07T06:37:01;2.80;;;2.60;;
1613;SDS011;800;48.824;9.346;2023-05-07T06:39:27;4.17;;;3.77;;
1613;SDS011;800;48.824;9.346;2023-05-07T06:41:52;2.50;;;2.30;;
1613;SDS011;800;48.824;9.346;2023-05-07T06:44:18;2.30;;;2.00;;
1613;SDS011;800;48.824;9.346;2023-05-07T06:46:44;3.03;;;2.33;;
1613;SDS011;800;48.824;9.346;2023-05-07T06:49:10;2.33;;;2.13;;
1613;SDS011;800;48.824;9.346;2023-05-07T06:51:37;2.93;;;2.47;;
1613;SDS011;800;48.824;9.346;2023-05-07T06:54:03;3.40;;;2.20;;
1613;SDS011;800;48.824;9.346;2023-05-07T06:56:29;2.63;;;2.33;;
1613;SDS011;800;48.824;9.346;2023-05-07T06:58:55;3.93;;;2.60;;
1613;SDS011;800;48.824;9.346;2023-05-07T07:01:21;2.83;;;2.13;;
1613;SDS011;800;48.824;9.346;2023-05-07T07:03:46;2.57;;;2.37;;
1613;SDS011;800;48.824;9.346;2023-05-07T07:06:12;2.90;;;2.60;;
1613;SDS011;800;48.824;9.346;2023-05-07T07:08:38;2.33;;;2.20;;
1613;SDS011;800;48.824;9.346;2023-05-07T07:11:04;3.53;;;2.53;;
1613;SDS011;800;48.824;9.346;2023-05-07T07:13:30;3.00;;;2.47;;
1613;SDS011;800;48.824;9.346;2023-05-07T07:15:55;2.63;;;2.43;;
1613;SDS011;800;48.824;9.346;2023-05-07T07:18:21;5.30;;;2.30;;
1613;SDS011;800;48.824;9.346;2023-05-07T07:20:47;2.50;;;2.30;;
1613;SDS011;800;48.824;9.346;2023-05-07T07:23:12;2.13;;;2.03;;
1613;SDS011;800;48.824;9.346;2023-05-07T07:25:38;2.30;;;2.20;;
1613;SDS011;800;48.824;9.346;2023-05-07T07:28:04;2.20;;;2.00;;
1613;SDS011;800;48.824;9.346;2023-05-07T07:30:30;2.43;;;2.30;;
1613;SDS011;800;48.824;9.346;2023-05-07T07:32:56;3.40;;;2.40;;
1613;SDS011;800;48.824;9.346;2023-05-07T07:35:27;3.63;;;2.40;;
1613;SDS011;800;48.824;9.346;2023-05-07T07:37:53;2.40;;;2.20;;
1613;SDS011;800;48.824;9.346;2023-05-07T07:40:19;2.83;;;2.63;;
1613;SDS011;800;48.824;9.346;2023-05-07T07:42:44;2.77;;;2.57;;
1613;SDS011;800;48.824;9.346;2023-05-07T07:45:10;3.00;;;2.70;;
1613;SDS011;800;48.824;9.346;2023-05-07T07:47:35;2.83;;;2.63;;
1613;SDS011;800;48.824;9.346;2023-05-07T07:50:01;2.53;;;2.33;;
1613;SDS011;800;48.824;9.346;2023-05-07T07:52:26;2.77;;;2.57;;
1613;SDS011;800;48.824;9.346;2023-05-07T07:54:52;2.70;;;2.50;;
1613;SDS011;800;48.824;9.346;2023-05-07T07:57:18;2.10;;;2.00;;
1613;SDS011;800;48.824;9.346;2023-05-07T07:59:43;2.63;;;2.37;;
1613;SDS011;800;48.824;9.346;2023-05-07T08:02:09;2.53;;;2.33;;
1613;SDS011;800;48.824;9.346;2023-05-07T08:04:34;2.30;;;2.10;;
1613;SDS011;800;48.824;9.346;2023-05-07T08:07:02;2.47;;;2.23;;
1613;SDS011;800;48.824;9.346;2023-05-07T08:09:27;3.77;;;2.20;;
1613;SDS011;800;48.824;9.346;2023-05-07T08:11:53;2.73;;;2.53;;
1613;SDS011;800;48.824;9.346;2023-05-07T08:14:18;2.67;;;2.50;;
1613;SDS011;800;48.824;9.346;2023-05-07T08:16:44;2.23;;;2.10;;
1613;SDS011;800;48.824;9.346;2023-05-07T08:19:10;2.70;;;2.50;;
1613;SDS011;800;48.824;9.346;2023-05-07T08:21:38;2.47;;;2.33;;
1613;SDS011;800;48.824;9.346;2023-05-07T08:24:04;2.43;;;2.23;;
1613;SDS011;800;48.824;9.346;2023-05-07T08:26:30;2.50;;;2.30;;
1613;SDS011;800;48.824;9.346;2023-05-07T08:28:56;2.50;;;2.30;;
1613;SDS011;800;48.824;9.346;2023-05-07T08:31:21;2.80;;;2.60;;
1613;SDS011;800;48.824;9.346;2023-05-07T08:33:47;3.60;;;2.30;;
1613;SDS011;800;48.824;9.346;2023-05-07T08:36:12;2.70;;;2.10;;
1613;SDS011;800;48.824;9.346;2023-05-07T08:38:38;4.20;;;2.13;;
1613;SDS011;800;48.824;9.346;2023-05-07T08:41:05;2.50;;;2.30;;
1613;SDS011;800;48.824;9.346;2023-05-07T08:43:32;2.53;;;2.33;;
1613;SDS011;800;48.824;9.346;2023-05-07T08:46:01;2.47;;;2.27;;
1613;SDS011;800;48.824;9.346;2023-05-07T08:48:27;3.57;;;2.40;;
1613;SDS011;800;48.824;9.346;2023-05-07T08:50:57;2.60;;;2.20;;
1613;SDS011;800;48.824;9.346;2023-05-07T08:53:23;2.57;;;2.30;;
1613;SDS011;800;48.824;9.346;2023-05-07T08:55:49;2.13;;;2.00;;
1613;SDS011;800;48.824;9.346;2023-05-07T08:58:16;2.43;;;2.17;;
1613;SDS011;800;48.824;9.346;2023-05-07T09:00:41;2.80;;;2.60;;
1613;SDS011;800;48.824;9.346;2023-05-07T09:03:07;5.23;;;2.33;;
1613;SDS011;800;48.824;9.346;2023-05-07T09:05:33;2.67;;;2.47;;
1613;SDS011;800;48.824;9.346;2023-05-07T09:07:59;2.50;;;2.13;;
1613;SDS011;800;48.824;9.346;2023-05-07T09:10:26;2.60;;;2.40;;
1613;SDS011;800;48.824;9.346;2023-05-07T09:12:52;2.90;;;2.30;;
1613;SDS011;800;48.824;9.346;2023-05-07T09:15:18;2.90;;;2.70;;
1613;SDS011;800;48.824;9.346;2023-05-07T09:17:43;2.33;;;2.13;;
1613;SDS011;800;48.824;9.346;2023-05-07T09:20:09;4.10;;;2.67;;
1613;SDS011;800;48.824;9.346;2023-05-07T09:22:38;2.23;;;2.13;;
1613;SDS011;800;48.824;9.346;2023-05-07T09:25:05;2.87;;;2.60;;
1613;SDS011;800;48.824;9.346;2023-05-07T09:27:32;7.00;;;2.70;;
1613;SDS011;800;48.824;9.346;2023-05-07T09:29:57;2.47;;;2.27;;
1613;SDS011;800;48.824;9.346;2023-05-07T09:32:24;2.83;;;2.63;;
1613;SDS011;800;48.824;9.346;2023-05-07T09:34:52;2.53;;;2.40;;
1613;SDS011;800;48.824;9.346;2023-05-07T09:37:17;3.00;;;2.80;;
1613;SDS011;800;48.824;9.346;2023-05-07T09:39:44;3.23;;;2.93;;
1613;SDS011;800;48.824;9.346;2023-05-07T09:42:11;4.57;;;2.90;;
1613;SDS011;800;48.824;9.346;2023-05-07T09:44:38;3.10;;;2.80;;
1613;SDS011;800;48.824;9.346;2023-05-07T09:47:07;2.80;;;2.60;;
1613;SDS011;800;48.824;9.346;2023-05-07T09:49:33;3.30;;;3.00;;
1613;SDS011;800;48.824;9.346;2023-05-07T09:52:01;2.90;;;2.50;;
1613;SDS011;800;48.824;9.346;2023-05-07T09:54:30;2.87;;;2.53;;
1613;SDS011;800;48.824;9.346;2023-05-07T09:56:59;2.60;;;2.30;;
1613;SDS011;800;48.824;9.346;2023-05-07T09:59:27;2.50;;;2.30;;
1613;SDS011;800;48.824;9.346;2023-05-07T10:01:56;3.10;;;2.67;;
1613;SDS011;800;48.824;9.346;2023-05-07T10:04:23;2.97;;;2.77;;
1613;SDS011;800;48.824;9.346;2023-05-07T10:06:50;4.43;;;3.20;;
1613;SDS011;800;48.824;9.346;2023-05-07T10:09:16;4.23;;;2.77;;
1613;SDS011;800;48.824;9.346;2023-05-07T10:11:43;2.93;;;2.47;;
1613;SDS011;800;48.824;9.346;2023-05-07T10:14:09;2.30;;;2.20;;
1613;SDS011;800;48.824;9.346;2023-05-07T10:16:36;1.93;;;1.83;;
1613;SDS011;800;48.824;9.346;2023-05-07T10:19:05;2.50;;;2.30;;
1613;SDS011;800;48.824;9.346;2023-05-07T10:21:39;3.30;;;2.60;;
1613;SDS011;800;48.824;9.346;2023-05-07T10:24:10;2.60;;;2.40;;
1613;SDS011;800;48.824;9.346;2023-05-07T10:26:45;2.50;;;2.30;;
1613;SDS011;800;48.824;9.346;2023-05-07T10:29:16;2.43;;;2.13;;
1613;SDS011;800;48.824;9.346;2023-05-07T10:34:39;3.20;;;3.00;;
1613;SDS011;800;48.824;9.346;2023-05-07T10:37:08;4.27;;;2.97;;
1613;SDS011;800;48.824;9.346;2023-05-07T10:39:35;3.63;;;2.00;;
1613;SDS011;800;48.824;9.346;2023-05-07T10:42:11;3.00;;;2.20;;
1613;SDS011;800;48.824;9.346;2023-05-07T10:44:39;2.10;;;2.00;;
1613;SDS011;800;48.824;9.346;2023-05-07T10:47:09;3.90;;;2.00;;
1613;SDS011;800;48.824;9.346;2023-05-07T10:50:21;5.60;;;2.27;;
1613;SDS011;800;48.824;9.346;2023-05-07T10:52:31;2.63;;;2.43;;
1613;SDS011;800;48.824;9.346;2023-05-07T10:57:42;3.00;;;2.77;;
1613;SDS011;800;48.824;9.346;2023-05-07T11:00:40;2.60;;;2.40;;
1613;SDS011;800;48.824;9.346;2023-05-07T11:05:29;2.43;;;2.00;;
1613;SDS011;800;48.824;9.346;2023-05-07T11:08:00;2.73;;;2.53;;
1613;SDS011;800;48.824;9.346;2023-05-07T11:13:19;3.03;;;2.80;;
1613;SDS011;800;48.824;9.346;2023-05-07T11:16:24;3.00;;;2.80;;
1613;SDS011;800;48.824;9.346;2023-05-07T11:18:53;2.33;;;2.13;;
1613;SDS011;800;48.824;9.346;2023-05-07T11:24:00;5.20;;;2.00;;
1613;SDS011;800;48.824;9.346;2023-05-07T11:26:28;2.53;;;2.33;;
1613;SDS011;800;48.824;9.346;2023-05-07T11:28:56;2.50;;;2.30;;
1613;SDS011;800;48.824;9.346;2023-05-07T11:31:26;2.93;;;2.07;;
1613;SDS011;800;48.824;9.346;2023-05-07T11:33:53;1.97;;;1.80;;
1613;SDS011;800;48.824;9.346;2023-05-07T11:36:21;2.10;;;2.00;;
1613;SDS011;800;48.824;9.346;2023-05-07T11:38:48;4.03;;;2.40;;
1613;SDS011;800;48.824;9.346;2023-05-07T11:41:15;2.23;;;2.03;;
1613;SDS011;800;48.824;9.346;2023-05-07T11:44:03;2.60;;;2.40;;
1613;SDS011;800;48.824;9.346;2023-05-07T11:46:28;2.10;;;2.00;;
1613;SDS011;800;48.824;9.346;2023-05-07T11:48:54;2.40;;;2.20;;
1613;SDS011;800;48.824;9.346;2023-05-07T11:51:21;2.47;;;2.30;;
1613;SDS011;800;48.824;9.346;2023-05-07T11:53:48;2.37;;;2.17;;
1613;SDS011;800;48.824;9.346;2023-05-07T11:56:16;2.30;;;1.87;;
1613;SDS011;800;48.824;9.346;2023-05-07T11:58:43;2.53;;;2.10;;
1613;SDS011;800;48.824;9.346;2023-05-07T12:01:10;2.13;;;2.00;;
1613;SDS011;800;48.824;9.346;2023-05-07T12:03:39;2.70;;;2.30;;
1613;SDS011;800;48.824;9.346;2023-05-07T12:06:07;2.43;;;2.17;;
1613;SDS011;800;48.824;9.346;2023-05-07T12:08:36;3.73;;;1.90;;
1613;SDS011;800;48.824;9.346;2023-05-07T12:11:03;4.43;;;2.53;;
1613;SDS011;800;48.824;9.346;2023-05-07T12:13:31;2.63;;;2.07;;
1613;SDS011;800;48.824;9.346;2023-05-07T12:15:57;2.50;;;2.30;;
1613;SDS011;800;48.824;9.346;2023-05-07T12:18:23;2.70;;;2.20;;
1613;SDS011;800;48.824;9.346;2023-05-07T12:20:49;2.20;;;2.10;;
1613;SDS011;800;48.824;9.346;2023-05-07T12:23:15;2.33;;;2.10;;
1613;SDS011;800;48.824;9.346;2023-05-07T12:25:42;2.50;;;2.30;;
1613;SDS011;800;48.824;9.346;2023-05-07T12:28:18;2.60;;;2.27;;
1613;SDS011;800;48.824;9.346;2023-05-07T12:30:45;2.70;;;2.27;;
1613;SDS011;800;48.824;9.346;2023-05-07T12:33:14;3.97;;;2.40;;
1613;SDS011;800;48.824;9.346;2023-05-07T12:35:42;2.07;;;1.80;;
1613;SDS011;800;48.824;9.346;2023-05-07T12:38:11;2.60;;;2.40;;
1613;SDS011;800;48.824;9.346;2023-05-07T12:40:42;2.87;;;2.60;;
1613;SDS011;800;48.824;9.346;2023-05-07T12:43:26;2.23;;;1.97;;
1613;SDS011;800;48.824;9.346;2023-05-07T12:45:53;2.60;;;2.40;;
1613;SDS011;800;48.824;9.346;2023-05-07T12:48:21;1.90;;;1.80;;
1613;SDS011;800;48.824;9.346;2023-05-07T12:50:51;2.20;;;2.10;;
1613;SDS011;800;48.824;9.346;2023-05-07T12:53:19;3.80;;;2.60;;
1613;SDS011;800;48.824;9.346;2023-05-07T12:55:47;2.30;;;2.10;;
1613;SDS011;800;48.824;9.346;2023-05-07T12:58:14;2.60;;;2.37;;
1613;SDS011;800;48.824;9.346;2023-05-07T13:00:41;2.60;;;2.40;;
1613;SDS011;800;48.824;9.346;2023-05-07T13:03:08;3.33;;;1.87;;
1613;SDS011;800;48.824;9.346;2023-05-07T13:05:34;2.50;;;2.30;;
1613;SDS011;800;48.824;9.346;2023-05-07T13:07:59;2.17;;;1.97;;
1613;SDS011;800;48.824;9.346;2023-05-07T13:10:26;3.57;;;2.33;;
1613;SDS011;800;48.824;9.346;2023-05-07T13:12:52;2.33;;;2.10;;
1613;SDS011;800;48.824;9.346;2023-05-07T13:15:18;2.47;;;2.20;;
1613;SDS011;800;48.824;9.346;2023-05-07T13:17:44;2.17;;;1.80;;
1613;SDS011;800;48.824;9.346;2023-05-07T13:20:09;3.03;;;2.23;;
1613;SDS011;800;48.824;9.346;2023-05-07T13:22:36;3.87;;;2.43;;
1613;SDS011;800;48.824;9.346;2023-05-07T13:25:02;2.53;;;2.20;;
1613;SDS011;800;48.824;9.346;2023-05-07T13:27:27;2.77;;;2.57;;
1613;SDS011;800;48.824;9.346;2023-05-07T13:29:55;2.60;;;2.40;;
1613;SDS011;800;48.824;9.346;2023-05-07T13:32:21;2.00;;;1.90;;
1613;SDS011;800;48.824;9.346;2023-05-07T13:34:47;4.80;;;1.60;;
1613;SDS011;800;48.824;9.346;2023-05-07T13:37:12;1.87;;;1.50;;
1613;SDS011;800;48.824;9.346;2023-05-07T13:39:38;2.93;;;1.40;;
1613;SDS011;800;48.824;9.346;2023-05-07T13:42:03;2.50;;;1.60;;
1613;SDS011;800;48.824;9.346;2023-05-07T13:44:29;3.90;;;1.57;;
1613;SDS011;800;48.824;9.346;2023-05-07T13:46:54;1.30;;;1.20;;
1613;SDS011;800;48.824;9.346;2023-05-07T13:49:20;2.77;;;1.77;;
1613;SDS011;800;48.824;9.346;2023-05-07T13:51:46;1.53;;;1.43;;
1613;SDS011;800;48.824;9.346;2023-05-07T13:54:12;1.57;;;1.17;;
1613;SDS011;800;48.824;9.346;2023-05-07T13:56:38;2.67;;;1.50;;
1613;SDS011;800;48.824;9.346;2023-05-07T13:59:04;1.30;;;1.23;;
1613;SDS011;800;48.824;9.346;2023-05-07T14:01:30;1.40;;;1.30;;
1613;SDS011;800;48.824;9.346;2023-05-07T14:03:56;1.80;;;1.70;;
1613;SDS011;800;48.824;9.346;2023-05-07T14:06:23;4.50;;;1.73;;
1613;SDS011;800;48.824;9.346;2023-05-07T14:08:48;3.97;;;2.03;;
1613;SDS011;800;48.824;9.346;2023-05-07T14:11:14;4.20;;;1.73;;
1613;SDS011;800;48.824;9.346;2023-05-07T14:13:39;2.87;;;1.83;;
1613;SDS011;800;48.824;9.346;2023-05-07T14:16:05;3.10;;;1.60;;
1613;SDS011;800;48.824;9.346;2023-05-07T14:18:30;6.13;;;2.07;;
1613;SDS011;800;48.824;9.346;2023-05-07T14:20:58;2.13;;;1.90;;
1613;SDS011;800;48.824;9.346;2023-05-07T14:23:24;5.03;;;1.90;;
1613;SDS011;800;48.824;9.346;2023-05-07T14:25:51;1.53;;;1.43;;
1613;SDS011;800;48.824;9.346;2023-05-07T14:28:17;1.97;;;1.47;;
1613;SDS011;800;48.824;9.346;2023-05-07T14:30:43;1.73;;;1.60;;
1613;SDS011;800;48.824;9.346;2023-05-07T14:33:09;3.00;;;1.40;;
1613;SDS011;800;48.824;9.346;2023-05-07T14:35:34;2.03;;;1.80;;
1613;SDS011;800;48.824;9.346;2023-05-07T14:38:00;4.80;;;1.83;;
1613;SDS011;800;48.824;9.346;2023-05-07T14:40:25;1.57;;;1.47;;
1613;SDS011;800;48.824;9.346;2023-05-07T14:42:51;2.40;;;2.20;;
1613;SDS011;800;48.824;9.346;2023-05-07T14:45:17;2.50;;;2.07;;
1613;SDS011;800;48.824;9.346;2023-05-07T14:47:42;3.27;;;1.70;;
1613;SDS011;800;48.824;9.346;2023-05-07T14:50:08;2.40;;;2.20;;
1613;SDS011;800;48.824;9.346;2023-05-07T14:52:34;2.47;;;1.90;;
1613;SDS011;800;48.824;9.346;2023-05-07T14:54:59;2.17;;;1.90;;
1613;SDS011;800;48.824;9.346;2023-05-07T14:57:25;2.03;;;1.90;;
1613;SDS011;800;48.824;9.346;2023-05-07T14:59:50;2.93;;;1.93;;
1613;SDS011;800;48.824;9.346;2023-05-07T15:02:16;4.23;;;1.90;;
1613;SDS011;800;48.824;9.346;2023-05-07T15:04:43;3.23;;;1.77;;
1613;SDS011;800;48.824;9.346;2023-05-07T15:07:12;2.63;;;2.10;;
1613;SDS011;800;48.824;9.346;2023-05-07T15:09:40;3.00;;;1.80;;
1613;SDS011;800;48.824;9.346;2023-05-07T15:12:06;2.00;;;1.90;;
1613;SDS011;800;48.824;9.346;2023-05-07T15:14:32;1.73;;;1.60;;
1613;SDS011;800;48.824;9.346;2023-05-07T15:16:58;1.80;;;1.70;;
1613;SDS011;800;48.824;9.346;2023-05-07T15:19:23;2.97;;;1.87;;
1613;SDS011;800;48.824;9.346;2023-05-07T15:21:53;1.70;;;1.60;;
1613;SDS011;800;48.824;9.346;2023-05-07T15:24:19;2.63;;;1.77;;
1613;SDS011;800;48.824;9.346;2023-05-07T15:26:45;2.97;;;2.10;;
1613;SDS011;800;48.824;9.346;2023-05-07T15:29:10;4.73;;;2.10;;
1613;SDS011;800;48.824;9.346;2023-05-07T15:31:36;4.53;;;2.40;;
1613;SDS011;800;48.824;9.346;2023-05-07T15:34:05;5.00;;;2.50;;
1613;SDS011;800;48.824;9.346;2023-05-07T15:36:30;2.70;;;2.30;;
1613;SDS011;800;48.824;9.346;2023-05-07T15:38:56;5.03;;;2.30;;
1613;SDS011;800;48.824;9.346;2023-05-07T15:41:22;5.10;;;2.90;;